createdAt,value
2023-05-17T00:00:17.058Z,19.71
2023-05-17T00:03:02.331Z,19.71
2023-05-17T00:05:47.557Z,19.69
2023-05-17T00:08:32.846Z,19.69
2023-05-17T00:11:18.308Z,19.69
2023-05-17T00:14:03.807Z,19.69
2023-05-17T00:16:49.078Z,19.68
2023-05-17T00:19:34.675Z,19.68
2023-05-17T00:22:19.937Z,19.67
2023-05-17T00:25:05.601Z,19.67
2023-05-17T00:27:51.173Z,19.65
2023-05-17T00:30:36.466Z,19.64
2023-05-17T00:33:22.157Z,19.65
2023-05-17T00:36:07.494Z,19.63
2023-05-17T00:38:53.237Z,19.64
2023-05-17T00:41:38.699Z,19.64
2023-05-17T00:44:23.935Z,19.63
2023-05-17T00:47:09.322Z,19.62
2023-05-17T00:49:54.493Z,19.62
2023-05-17T00:52:40.223Z,19.62
2023-05-17T00:55:25.441Z,19.62
2023-05-17T00:58:15.037Z,19.60
2023-05-17T01:01:01.859Z,19.61
2023-05-17T01:03:47.599Z,19.59
2023-05-17T01:06:33.601Z,19.59
2023-05-17T01:09:19.125Z,19.60
2023-05-17T01:12:07.386Z,19.59
2023-05-17T01:15:33.069Z,19.56
2023-05-17T01:18:27.670Z,19.56
2023-05-17T01:21:57.375Z,19.57
2023-05-17T01:24:59.597Z,19.57
2023-05-17T01:27:50.179Z,19.56
2023-05-17T01:30:38.155Z,19.56
2023-05-17T01:33:23.584Z,19.55
2023-05-17T01:36:09.715Z,19.56
2023-05-17T01:38:55.143Z,19.55
2023-05-17T01:41:42.259Z,19.55
2023-05-17T01:44:59.564Z,19.54
2023-05-17T01:47:56.829Z,19.53
2023-05-17T01:50:43.869Z,19.53
2023-05-17T01:53:40.294Z,19.52
2023-05-17T01:56:34.677Z,19.51
2023-05-17T01:59:25.181Z,19.52
2023-05-17T02:02:10.775Z,19.50
2023-05-17T02:04:56.168Z,19.52
2023-05-17T02:07:41.379Z,19.51
2023-05-17T02:10:26.826Z,19.51
2023-05-17T02:13:12.801Z,19.49
2023-05-17T02:16:02.458Z,19.49
2023-05-17T02:18:47.914Z,19.49
2023-05-17T02:21:33.264Z,19.48
2023-05-17T02:24:18.467Z,19.48
2023-05-17T02:27:03.893Z,19.48
2023-05-17T02:29:50.437Z,19.47
2023-05-17T02:32:35.820Z,19.47
2023-05-17T02:35:20.917Z,19.47
2023-05-17T02:38:09.280Z,19.47
2023-05-17T02:40:54.643Z,19.47
2023-05-17T02:43:39.811Z,19.46
2023-05-17T02:46:25.103Z,19.47
2023-05-17T02:49:10.621Z,19.45
2023-05-17T02:51:56.256Z,19.46
2023-05-17T02:54:43.470Z,19.46
2023-05-17T02:57:29.159Z,19.46
2023-05-17T03:00:15.030Z,19.46
2023-05-17T03:03:00.263Z,19.47
2023-05-17T03:05:45.964Z,19.46
2023-05-17T03:08:31.700Z,19.44
2023-05-17T03:11:18.467Z,19.45
2023-05-17T03:14:03.812Z,19.47
2023-05-17T03:16:50.122Z,19.46
2023-05-17T03:19:36.430Z,19.45
2023-05-17T03:22:22.391Z,19.45
2023-05-17T03:25:08.614Z,19.46
2023-05-17T03:27:55.524Z,19.45
2023-05-17T03:30:41.094Z,19.46
2023-05-17T03:33:27.592Z,19.45
2023-05-17T03:36:13.320Z,19.45
2023-05-17T03:38:59.111Z,19.45
2023-05-17T03:41:44.819Z,19.44
2023-05-17T03:44:31.167Z,19.44
2023-05-17T03:47:16.431Z,19.43
2023-05-17T03:50:02.737Z,19.42
2023-05-17T03:52:51.053Z,19.44
2023-05-17T03:55:37.376Z,19.43
2023-05-17T03:58:23.560Z,19.46
2023-05-17T04:01:08.803Z,19.46
2023-05-17T04:03:54.239Z,19.49
2023-05-17T04:06:41.365Z,19.50
2023-05-17T04:09:26.886Z,19.55
2023-05-17T04:12:12.157Z,19.56
2023-05-17T04:14:57.882Z,19.62
2023-05-17T04:17:44.380Z,19.63
2023-05-17T04:20:29.955Z,19.65
2023-05-17T04:23:16.095Z,19.70
2023-05-17T04:26:01.639Z,19.71
2023-05-17T04:28:49.187Z,19.75
2023-05-17T04:31:35.752Z,19.83
2023-05-17T04:34:25.022Z,19.82
2023-05-17T04:37:12.505Z,19.87
2023-05-17T04:39:59.292Z,19.92
2023-05-17T04:42:47.733Z,19.93
2023-05-17T04:45:33.996Z,19.96
2023-05-17T04:48:20.971Z,19.98
2023-05-17T04:51:06.369Z,19.99
2023-05-17T04:53:51.605Z,20.00
2023-05-17T04:56:37.663Z,20.01
2023-05-17T04:59:27.653Z,20.05
2023-05-17T05:02:13.154Z,20.08
2023-05-17T05:04:58.915Z,20.10
2023-05-17T05:07:44.286Z,20.09
2023-05-17T05:10:32.033Z,20.08
2023-05-17T05:13:18.188Z,20.05
2023-05-17T05:16:03.913Z,20.03
2023-05-17T05:18:49.597Z,20.00
2023-05-17T05:21:35.010Z,19.99
2023-05-17T05:24:20.161Z,19.97
2023-05-17T05:27:07.202Z,19.95
2023-05-17T05:29:54.693Z,19.93
2023-05-17T05:32:40.407Z,19.90
2023-05-17T05:35:30.381Z,19.88
2023-05-17T05:38:16.832Z,19.87
2023-05-17T05:41:02.724Z,19.85
2023-05-17T05:43:48.430Z,19.84
2023-05-17T05:46:33.778Z,19.82
2023-05-17T05:49:22.347Z,19.81
2023-05-17T05:52:08.274Z,19.79
2023-05-17T05:54:55.289Z,19.78
2023-05-17T05:57:40.559Z,19.77
2023-05-17T06:00:26.203Z,19.75
2023-05-17T06:03:11.858Z,19.75
2023-05-17T06:05:57.255Z,19.75
2023-05-17T06:08:45.138Z,19.73
2023-05-17T06:11:30.381Z,19.72
2023-05-17T06:14:15.967Z,19.71
2023-05-17T06:17:01.480Z,19.71
2023-05-17T06:19:49.156Z,19.70
2023-05-17T06:22:34.628Z,19.69
2023-05-17T06:25:19.947Z,19.68
2023-05-17T06:28:05.569Z,19.68
2023-05-17T06:30:51.073Z,19.68
2023-05-17T06:33:36.241Z,19.67
2023-05-17T06:36:21.699Z,19.67
2023-05-17T06:39:07.169Z,19.65
2023-05-17T06:41:52.732Z,19.65
2023-05-17T06:44:37.923Z,19.65
2023-05-17T06:47:23.133Z,19.65
2023-05-17T06:50:09.001Z,19.64
2023-05-17T06:52:54.342Z,19.65
2023-05-17T06:55:40.432Z,19.64
2023-05-17T06:58:25.559Z,19.64
2023-05-17T07:01:10.872Z,19.63
2023-05-17T07:03:56.883Z,19.62
2023-05-17T07:06:42.303Z,19.63
2023-05-17T07:09:27.677Z,19.62
2023-05-17T07:12:13.264Z,19.61
2023-05-17T07:14:58.611Z,19.62
2023-05-17T07:17:43.850Z,19.61
2023-05-17T07:20:29.099Z,19.62
2023-05-17T07:23:14.691Z,19.62
2023-05-17T07:25:59.878Z,19.62
2023-05-17T07:28:45.164Z,19.62
2023-05-17T07:31:30.659Z,19.62
2023-05-17T07:34:16.122Z,19.62
2023-05-17T07:37:01.368Z,19.63
2023-05-17T07:39:46.565Z,19.63
2023-05-17T07:42:33.320Z,19.64
2023-05-17T07:45:19.029Z,19.63
2023-05-17T07:48:04.604Z,19.62
2023-05-17T07:50:50.619Z,19.63
2023-05-17T07:53:36.677Z,19.63
2023-05-17T07:56:22.601Z,19.64
2023-05-17T07:59:08.775Z,19.64
2023-05-17T08:01:54.936Z,19.64
2023-05-17T08:04:42.155Z,19.63
2023-05-17T08:07:28.087Z,19.64
2023-05-17T08:10:13.916Z,19.63
2023-05-17T08:13:00.165Z,19.63
2023-05-17T08:15:46.220Z,19.62
2023-05-17T08:18:33.541Z,19.62
2023-05-17T08:21:19.610Z,19.61
2023-05-17T08:24:06.821Z,19.62
2023-05-17T08:26:53.839Z,19.62
2023-05-17T08:29:40.216Z,19.63
2023-05-17T08:32:26.709Z,19.62
2023-05-17T08:35:12.794Z,19.61
2023-05-17T08:37:59.343Z,19.62
2023-05-17T08:40:54.759Z,19.62
2023-05-17T08:43:41.912Z,19.61
2023-05-17T08:46:31.896Z,19.63
2023-05-17T08:49:23.344Z,19.63
2023-05-17T08:52:11.515Z,19.63
2023-05-17T08:54:58.563Z,19.63
2023-05-17T08:57:46.174Z,19.61
2023-05-17T09:00:33.813Z,19.62
2023-05-17T09:03:22.567Z,19.63
2023-05-17T09:06:11.527Z,19.61
2023-05-17T09:08:59.070Z,19.60
2023-05-17T09:11:46.687Z,19.60
2023-05-17T09:14:37.539Z,19.60
2023-05-17T09:17:24.189Z,19.60
2023-05-17T09:20:11.879Z,19.60
2023-05-17T09:22:58.297Z,19.61
2023-05-17T09:25:49.200Z,19.60
2023-05-17T09:28:41.025Z,19.60
2023-05-17T09:31:27.577Z,19.60
2023-05-17T09:34:20.770Z,19.59
2023-05-17T09:37:12.538Z,19.59
2023-05-17T09:39:58.509Z,19.59
2023-05-17T09:42:48.159Z,19.59
2023-05-17T09:45:34.364Z,19.59
2023-05-17T09:48:22.390Z,19.58
2023-05-17T09:51:07.867Z,19.59
2023-05-17T09:53:54.817Z,19.58
2023-05-17T09:56:41.180Z,19.58
2023-05-17T09:59:29.443Z,19.58
2023-05-17T10:02:24.482Z,19.57
2023-05-17T10:05:12.546Z,19.58
2023-05-17T10:07:58.618Z,19.56
2023-05-17T10:10:46.456Z,19.57
2023-05-17T10:13:37.488Z,19.57
2023-05-17T10:16:23.930Z,19.57
2023-05-17T10:19:10.620Z,19.56
2023-05-17T10:22:07.836Z,19.56
2023-05-17T10:25:04.520Z,19.57
2023-05-17T10:27:53.435Z,19.54
2023-05-17T10:30:40.650Z,19.56
2023-05-17T10:33:28.135Z,19.57
2023-05-17T10:36:17.715Z,19.56
2023-05-17T10:39:08.157Z,19.57
2023-05-17T10:42:13.004Z,19.57
2023-05-17T10:45:01.589Z,19.58
2023-05-17T10:47:46.923Z,19.59
2023-05-17T10:50:32.716Z,19.58
2023-05-17T10:53:18.051Z,19.59
2023-05-17T10:56:04.098Z,19.58
2023-05-17T10:59:17.058Z,19.58
2023-05-17T11:02:10.427Z,19.60
2023-05-17T11:05:00.511Z,19.59
2023-05-17T11:07:48.717Z,19.60
2023-05-17T11:10:36.112Z,19.60
2023-05-17T11:13:27.648Z,19.60
2023-05-17T11:16:17.978Z,19.59
2023-05-17T11:19:12.190Z,19.59
2023-05-17T11:21:58.036Z,19.59
2023-05-17T11:24:45.696Z,19.60
2023-05-17T11:27:36.959Z,19.59
2023-05-17T11:30:26.885Z,19.60
2023-05-17T11:33:21.321Z,19.61
2023-05-17T11:36:22.889Z,19.60
2023-05-17T11:39:13.794Z,19.61
2023-05-17T11:41:59.481Z,19.62
2023-05-17T11:44:44.947Z,19.62
2023-05-17T11:47:30.468Z,19.62
2023-05-17T11:50:17.671Z,19.62
2023-05-17T11:53:06.800Z,19.61
2023-05-17T11:55:53.061Z,19.62
2023-05-17T11:58:38.882Z,19.63
2023-05-17T12:01:24.795Z,19.63
2023-05-17T12:04:10.285Z,19.61
2023-05-17T12:06:56.322Z,19.63
2023-05-17T12:09:46.182Z,19.63
2023-05-17T12:12:31.443Z,19.63
2023-05-17T12:15:20.483Z,19.64
2023-05-17T12:18:06.164Z,19.62
2023-05-17T12:20:55.462Z,19.63
2023-05-17T12:23:50.896Z,19.63
2023-05-17T12:26:44.561Z,19.65
2023-05-17T12:29:30.309Z,19.69
2023-05-17T12:32:16.328Z,19.72
2023-05-17T12:35:02.325Z,19.74
2023-05-17T12:37:47.891Z,19.78
2023-05-17T12:40:33.139Z,19.82
2023-05-17T12:43:19.820Z,19.86
2023-05-17T12:46:12.447Z,19.90
2023-05-17T12:49:07.216Z,19.95
2023-05-17T12:51:52.932Z,20.00
2023-05-17T12:54:39.838Z,20.03
2023-05-17T12:57:25.064Z,20.04
2023-05-17T13:00:11.167Z,20.09
2023-05-17T13:02:57.135Z,20.11
2023-05-17T13:05:44.185Z,20.12
2023-05-17T13:08:29.891Z,20.16
2023-05-17T13:11:15.451Z,20.19
2023-05-17T13:14:00.698Z,20.20
2023-05-17T13:16:45.926Z,20.23
2023-05-17T13:19:31.250Z,20.25
2023-05-17T13:22:18.102Z,20.28
2023-05-17T13:25:03.626Z,20.29
2023-05-17T13:27:49.567Z,20.31
2023-05-17T13:30:35.018Z,20.34
2023-05-17T13:33:20.346Z,20.36
2023-05-17T13:36:06.615Z,20.38
2023-05-17T13:38:51.808Z,20.39
2023-05-17T13:41:37.151Z,20.40
2023-05-17T13:44:22.529Z,20.42
2023-05-17T13:47:08.236Z,20.43
2023-05-17T13:49:53.820Z,20.43
2023-05-17T13:52:39.457Z,20.41
2023-05-17T13:55:25.170Z,20.45
2023-05-17T13:58:10.336Z,20.47
2023-05-17T14:00:56.330Z,20.49
2023-05-17T14:03:41.657Z,20.49
2023-05-17T14:06:26.764Z,20.46
2023-05-17T14:09:12.955Z,20.47
2023-05-17T14:12:00.962Z,20.48
2023-05-17T14:14:46.489Z,20.50
2023-05-17T14:17:33.207Z,20.52
2023-05-17T14:20:18.759Z,20.54
2023-05-17T14:23:04.103Z,20.57
2023-05-17T14:25:49.524Z,20.60
2023-05-17T14:28:38.189Z,20.62
2023-05-17T14:31:23.971Z,20.67
2023-05-17T14:34:09.581Z,20.69
2023-05-17T14:36:55.550Z,20.70
2023-05-17T14:39:41.286Z,20.75
2023-05-17T14:42:28.002Z,20.76
2023-05-17T14:45:13.840Z,20.79
2023-05-17T14:47:59.564Z,20.80
2023-05-17T14:50:44.951Z,20.82
2023-05-17T14:53:30.970Z,20.82
2023-05-17T14:56:16.919Z,20.83
2023-05-17T14:59:03.338Z,20.84
2023-05-17T15:01:48.991Z,20.88
2023-05-17T15:04:34.855Z,20.90
2023-05-17T15:07:20.862Z,20.89
2023-05-17T15:10:06.674Z,20.90
2023-05-17T15:12:52.432Z,20.94
2023-05-17T15:15:38.448Z,20.96
2023-05-17T15:18:24.830Z,20.96
2023-05-17T15:21:10.567Z,20.97
2023-05-17T15:23:56.073Z,20.99
2023-05-17T15:26:41.926Z,21.00
2023-05-17T15:29:28.753Z,21.02
2023-05-17T15:32:14.343Z,20.96
2023-05-17T15:35:00.243Z,20.97
2023-05-17T15:37:46.242Z,20.99
2023-05-17T15:40:31.738Z,20.98
2023-05-17T15:43:17.245Z,20.99
2023-05-17T15:46:02.795Z,21.01
2023-05-17T15:48:48.525Z,21.01
2023-05-17T15:51:33.867Z,21.02
2023-05-17T15:54:19.404Z,21.03
2023-05-17T15:57:05.054Z,21.04
2023-05-17T15:59:51.185Z,21.03
2023-05-17T16:02:36.700Z,21.01
2023-05-17T16:05:22.531Z,21.02
2023-05-17T16:08:09.264Z,21.01
2023-05-17T16:10:54.808Z,21.00
2023-05-17T16:13:40.945Z,21.01
2023-05-17T16:16:26.528Z,20.99
2023-05-17T16:19:13.008Z,21.03
2023-05-17T16:22:06.751Z,21.03
2023-05-17T16:24:59.461Z,21.04
2023-05-17T16:27:46.687Z,21.04
2023-05-17T16:30:32.689Z,21.04
2023-05-17T16:33:22.818Z,21.03
2023-05-17T16:36:11.755Z,21.05
2023-05-17T16:39:18.822Z,21.07
2023-05-17T16:45:17.689Z,21.10
2023-05-17T16:48:06.882Z,21.13
2023-05-17T16:50:55.662Z,21.13
2023-05-17T16:53:48.864Z,21.16
2023-05-17T16:56:37.673Z,21.16
2023-05-17T16:59:23.201Z,21.21
2023-05-17T17:02:09.593Z,21.20
2023-05-17T17:04:55.812Z,21.20
2023-05-17T17:07:41.319Z,21.20
2023-05-17T17:10:26.886Z,21.21
2023-05-17T17:13:12.477Z,21.22
2023-05-17T17:15:58.018Z,21.22
2023-05-17T17:18:44.445Z,21.21
2023-05-17T17:21:36.534Z,21.22
2023-05-17T17:24:22.629Z,21.19
2023-05-17T17:27:09.378Z,21.18
2023-05-17T17:29:55.933Z,21.17
2023-05-17T17:32:42.910Z,21.16
2023-05-17T17:35:28.471Z,21.15
2023-05-17T17:38:14.477Z,21.17
2023-05-17T17:41:00.212Z,21.17
2023-05-17T17:43:48.008Z,21.14
2023-05-17T17:46:34.887Z,21.15
2023-05-17T17:49:20.164Z,21.12
2023-05-17T17:52:05.843Z,21.11
2023-05-17T17:54:51.336Z,21.08
2023-05-17T17:57:37.051Z,21.07
2023-05-17T18:00:23.870Z,21.07
2023-05-17T18:03:14.404Z,21.03
2023-05-17T18:06:00.954Z,21.01
2023-05-17T18:08:46.807Z,20.99
2023-05-17T18:11:36.353Z,20.97
2023-05-17T18:14:21.942Z,20.94
2023-05-17T18:17:12.118Z,20.92
2023-05-17T18:19:57.661Z,20.90
2023-05-17T18:22:43.455Z,20.91
2023-05-17T18:25:55.886Z,20.88
2023-05-17T18:28:43.221Z,20.88
2023-05-17T18:31:31.687Z,20.86
2023-05-17T18:34:18.837Z,20.83
2023-05-17T18:37:05.020Z,20.82
2023-05-17T18:39:51.496Z,20.80
2023-05-17T18:42:36.935Z,20.78
2023-05-17T18:48:08.237Z,20.70
2023-05-17T18:50:53.549Z,20.69
2023-05-17T18:53:38.801Z,20.66
2023-05-17T18:56:25.194Z,20.64
2023-05-17T18:59:10.622Z,20.61
2023-05-17T19:01:55.995Z,20.58
2023-05-17T19:04:41.312Z,20.56
2023-05-17T19:07:26.348Z,20.52
2023-05-17T19:14:16.423Z,20.44
2023-05-17T19:17:01.789Z,20.41
2023-05-17T19:19:47.222Z,20.38
2023-05-17T19:22:32.817Z,20.34
2023-05-17T19:25:20.294Z,20.31
2023-05-17T19:28:06.344Z,20.30
2023-05-17T19:30:51.637Z,20.26
2023-05-17T19:33:37.781Z,20.24
2023-05-17T19:36:22.910Z,20.24
2023-05-17T19:39:08.161Z,20.21
2023-05-17T19:41:53.420Z,20.19
2023-05-17T19:44:38.772Z,20.14
2023-05-17T19:47:24.214Z,20.13
2023-05-17T19:50:11.569Z,20.12
2023-05-17T19:52:56.973Z,20.10
2023-05-17T19:55:42.262Z,20.10
2023-05-17T19:58:29.304Z,20.05
2023-05-17T20:01:14.924Z,20.04
2023-05-17T20:04:00.225Z,20.03
2023-05-17T20:06:46.246Z,20.03
2023-05-17T20:09:32.238Z,20.03
2023-05-17T20:12:17.658Z,20.02
2023-05-17T20:15:03.447Z,20.00
2023-05-17T20:17:48.910Z,19.99
2023-05-17T20:20:34.129Z,19.96
2023-05-17T20:23:19.428Z,19.97
2023-05-17T20:26:04.948Z,19.94
2023-05-17T20:28:50.316Z,19.93
2023-05-17T20:31:36.390Z,19.93
2023-05-17T20:34:22.065Z,19.92
2023-05-17T20:37:07.574Z,19.90
2023-05-17T20:39:53.353Z,19.89
2023-05-17T20:42:40.330Z,19.89
2023-05-17T20:45:30.020Z,19.87
2023-05-17T20:48:15.488Z,19.86
2023-05-17T20:51:01.224Z,19.84
2023-05-17T20:53:46.754Z,19.83
2023-05-17T20:56:37.024Z,19.82
2023-05-17T20:59:23.648Z,19.82
2023-05-17T21:02:09.175Z,19.80
2023-05-17T21:04:54.759Z,19.77
2023-05-17T21:07:40.414Z,19.78
2023-05-17T21:10:26.039Z,19.77
2023-05-17T21:13:12.480Z,19.76
2023-05-17T21:15:57.850Z,19.76
2023-05-17T21:18:45.110Z,19.75
2023-05-17T21:21:30.856Z,19.75
2023-05-17T21:24:16.466Z,19.73
2023-05-17T21:27:02.115Z,19.72
2023-05-17T21:29:47.779Z,19.70
2023-05-17T21:32:33.161Z,19.70
2023-05-17T21:35:18.438Z,19.69
2023-05-17T21:38:03.976Z,19.69
2023-05-17T21:40:49.685Z,19.69
2023-05-17T21:43:35.002Z,19.68
2023-05-17T21:46:20.298Z,19.67
2023-05-17T21:49:05.849Z,19.66
2023-05-17T21:51:51.654Z,19.64
2023-05-17T21:54:36.880Z,19.64
2023-05-17T21:57:22.138Z,19.62
2023-05-17T22:00:08.085Z,19.63
2023-05-17T22:02:53.468Z,19.62
2023-05-17T22:05:39.112Z,19.63
2023-05-17T22:08:24.450Z,19.61
2023-05-17T22:11:11.015Z,19.61
2023-05-17T22:13:57.084Z,19.60
2023-05-17T22:16:42.428Z,19.59
2023-05-17T22:19:30.355Z,19.59
2023-05-17T22:22:16.018Z,19.57
2023-05-17T22:25:01.594Z,19.57
2023-05-17T22:27:47.902Z,19.57
2023-05-17T22:30:33.614Z,19.55
2023-05-17T22:33:19.393Z,19.56
2023-05-17T22:36:05.127Z,19.55
2023-05-17T22:38:50.729Z,19.55
2023-05-17T22:41:36.589Z,19.55
2023-05-17T22:44:22.133Z,19.53
2023-05-17T22:47:08.823Z,19.52
2023-05-17T22:49:54.047Z,19.52
2023-05-17T22:52:42.736Z,19.52
2023-05-17T22:55:28.962Z,19.51
2023-05-17T22:58:15.486Z,19.51
2023-05-17T23:01:01.134Z,19.50
2023-05-17T23:03:46.493Z,19.49
2023-05-17T23:06:34.297Z,19.48
2023-05-17T23:09:22.004Z,19.47
2023-05-17T23:12:08.805Z,19.48
2023-05-17T23:14:57.953Z,19.46
2023-05-17T23:17:44.064Z,19.46
2023-05-17T23:20:29.942Z,19.47
2023-05-17T23:23:15.893Z,19.45
2023-05-17T23:26:01.936Z,19.46
2023-05-17T23:28:47.247Z,19.47
2023-05-17T23:31:33.903Z,19.46
2023-05-17T23:34:19.312Z,19.46
2023-05-17T23:37:04.927Z,19.46
2023-05-17T23:39:50.560Z,19.46
2023-05-17T23:42:36.378Z,19.46
2023-05-17T23:45:21.946Z,19.46
2023-05-17T23:48:09.826Z,19.47
2023-05-17T23:50:55.554Z,19.47
2023-05-17T23:53:42.173Z,19.47
2023-05-17T23:56:27.494Z,19.46
2023-05-17T23:59:12.957Z,19.46
